Time;durP1;ratioP1;P1;durP2;ratioP2;P2;SDS_P1;SDS_P2;PMS_P1;PMS_P2;Temp;Humidity;BMP_temperature;BMP_pressure;BME280_temperature;BME280_humidity;BME280_pressure;Samples;Min_cycle;Max_cycle;Signal;HPM_P1;HPM_P2
2022/07/13 00:02:04;;;;;;;4.97;3.20;;;20.20;99.90;;;;;;5019192;28;20037;-68
2022/07/13 00:04:30;;;;;;;5.63;3.03;;;20.10;99.90;;;;;;5034772;28;20136;-68
2022/07/13 00:06:55;;;;;;;5.10;2.90;;;20.00;99.90;;;;;;5018401;28;20032;-68
2022/07/13 00:09:21;;;;;;;4.85;2.90;;;20.00;99.90;;;;;;5018986;28;20521;-68
2022/07/13 00:11:47;;;;;;;4.32;2.90;;;20.00;99.90;;;;;;5019051;28;20045;-68
2022/07/13 00:14:12;;;;;;;4.65;2.70;;;20.00;99.90;;;;;;5018240;28;20043;-68
2022/07/13 00:16:38;;;;;;;4.57;3.05;;;20.00;99.90;;;;;;5034713;28;20044;-68
2022/07/13 00:19:04;;;;;;;5.30;3.22;;;20.00;99.90;;;;;;5018257;28;20037;-69
2022/07/13 00:21:29;;;;;;;4.63;2.90;;;20.00;99.90;;;;;;5018953;28;20405;-68
2022/07/13 00:23:55;;;;;;;4.78;3.10;;;20.00;99.90;;;;;;5016723;28;20037;-69
2022/07/13 00:26:20;;;;;;;5.35;3.22;;;20.00;99.90;;;;;;5034371;28;20041;-68
2022/07/13 00:28:46;;;;;;;5.32;3.22;;;20.00;99.90;;;;;;5035338;28;20397;-68
2022/07/13 00:31:11;;;;;;;4.95;3.38;;;20.00;99.90;;;;;;5034348;28;20493;-68
2022/07/13 00:33:37;;;;;;;5.35;3.25;;;20.00;99.90;;;;;;5048237;28;20109;-68
2022/07/13 00:36:03;;;;;;;4.90;2.85;;;20.00;99.90;;;;;;5035186;28;20409;-68
2022/07/13 00:38:28;;;;;;;5.10;3.10;;;20.00;99.90;;;;;;5035172;28;20128;-68
2022/07/13 00:40:54;;;;;;;5.78;3.40;;;20.10;99.90;;;;;;5035346;28;20041;-68
2022/07/13 00:43:19;;;;;;;5.38;3.60;;;20.10;99.90;;;;;;5017829;28;20075;-68
2022/07/13 00:45:45;;;;;;;5.55;3.25;;;20.00;99.90;;;;;;5016081;28;20489;-68
2022/07/13 00:48:11;;;;;;;6.25;3.70;;;20.00;99.90;;;;;;5018161;28;20492;-68
2022/07/13 00:50:37;;;;;;;6.03;3.40;;;19.90;99.90;;;;;;5017927;28;20041;-68
2022/07/13 00:53:04;;;;;;;6.88;3.40;;;19.90;99.90;;;;;;5036293;28;20610;-68
2022/07/13 00:55:31;;;;;;;5.25;3.30;;;20.00;99.90;;;;;;5034487;28;20064;-69
2022/07/13 00:57:58;;;;;;;5.90;3.30;;;20.00;99.90;;;;;;5034990;28;20047;-68
2022/07/13 01:00:24;;;;;;;5.88;4.00;;;20.00;99.90;;;;;;5017462;28;20033;-68
2022/07/13 01:02:50;;;;;;;8.05;4.00;;;20.00;99.90;;;;;;5018625;28;20083;-68
2022/07/13 01:05:16;;;;;;;7.07;4.25;;;19.90;99.90;;;;;;5017541;28;20045;-68
2022/07/13 01:07:42;;;;;;;5.65;3.88;;;20.00;99.90;;;;;;5035157;28;20049;-68
2022/07/13 01:10:09;;;;;;;6.63;4.07;;;20.00;99.90;;;;;;5034890;28;20087;-68
2022/07/13 01:12:36;;;;;;;5.90;4.22;;;19.90;99.90;;;;;;5017525;28;20045;-68
2022/07/13 01:15:04;;;;;;;6.20;4.30;;;20.00;99.90;;;;;;5034453;28;20416;-68
2022/07/13 01:17:31;;;;;;;7.15;4.60;;;20.00;99.90;;;;;;5035075;28;20049;-69
2022/07/13 01:19:57;;;;;;;7.43;5.20;;;20.00;99.90;;;;;;5034732;28;20041;-69
2022/07/13 01:22:35;;;;;;;7.72;5.43;;;20.00;99.90;;;;;;5034012;28;20429;-68
2022/07/13 01:25:02;;;;;;;8.50;4.82;;;20.10;99.90;;;;;;5017408;28;20041;-68
2022/07/13 01:27:30;;;;;;;9.02;5.70;;;20.10;99.90;;;;;;5034719;28;20045;-69
2022/07/13 01:29:56;;;;;;;8.38;5.20;;;20.10;99.90;;;;;;5034830;28;20047;-68
2022/07/13 01:32:21;;;;;;;8.05;5.25;;;20.20;99.90;;;;;;5035543;28;20132;-68
2022/07/13 01:34:47;;;;;;;8.77;5.47;;;20.00;99.90;;;;;;5037446;28;20052;-68
2022/07/13 01:37:13;;;;;;;7.53;5.30;;;19.90;99.90;;;;;;5036350;28;20045;-69
2022/07/13 01:39:39;;;;;;;7.43;5.32;;;19.90;99.90;;;;;;5034778;28;20094;-69
2022/07/13 01:42:04;;;;;;;8.65;5.43;;;19.90;99.90;;;;;;5021145;28;20401;-68
2022/07/13 01:44:30;;;;;;;7.78;5.53;;;19.80;99.90;;;;;;5037455;28;20041;-69
2022/07/13 01:46:56;;;;;;;8.57;6.07;;;19.80;99.90;;;;;;5038428;28;20032;-68
2022/07/13 01:49:21;;;;;;;11.35;5.93;;;19.80;99.90;;;;;;5038113;28;20122;-68
2022/07/13 01:51:47;;;;;;;8.27;5.93;;;19.80;99.90;;;;;;5021828;28;20064;-68
2022/07/13 01:54:12;;;;;;;10.15;6.78;;;19.80;99.90;;;;;;5035509;28;20052;-68
2022/07/13 01:56:38;;;;;;;8.75;6.80;;;19.80;99.90;;;;;;5020497;28;20485;-68
2022/07/13 01:59:04;;;;;;;9.45;6.97;;;19.80;99.90;;;;;;5037930;28;20451;-68
2022/07/13 02:01:29;;;;;;;8.77;6.70;;;19.80;99.90;;;;;;5036126;28;20044;-68
2022/07/13 02:03:55;;;;;;;10.35;7.70;;;19.80;99.90;;;;;;5021288;28;20099;-68
2022/07/13 02:06:21;;;;;;;8.80;7.22;;;19.80;99.90;;;;;;5021668;28;20367;-68
2022/07/13 02:08:46;;;;;;;8.77;6.68;;;19.80;99.90;;;;;;5037007;28;20047;-68
2022/07/13 02:11:17;;;;;;;10.73;7.38;;;19.80;99.90;;;;;;5037642;28;20044;-68
2022/07/13 02:13:45;;;;;;;10.10;7.15;;;19.80;99.90;;;;;;5037695;28;20045;-68
2022/07/13 02:16:15;;;;;;;10.65;7.90;;;19.80;99.90;;;;;;5037338;28;20037;-68
2022/07/13 02:18:41;;;;;;;10.48;7.32;;;19.90;99.90;;;;;;5036465;28;20045;-68
2022/07/13 02:21:07;;;;;;;9.85;7.45;;;19.90;99.90;;;;;;5036480;28;20041;-68
2022/07/13 02:23:32;;;;;;;10.13;7.63;;;19.90;99.90;;;;;;5036335;28;20055;-68
2022/07/13 02:25:58;;;;;;;9.38;7.38;;;19.90;99.90;;;;;;5036613;28;20037;-68
2022/07/13 02:28:23;;;;;;;9.10;6.90;;;19.90;99.90;;;;;;5020275;28;20033;-68
2022/07/13 02:30:49;;;;;;;9.95;7.05;;;19.80;99.90;;;;;;5037021;28;20496;-68
2022/07/13 02:33:15;;;;;;;9.55;7.53;;;19.80;99.90;;;;;;5036847;28;20063;-68
2022/07/13 02:35:40;;;;;;;8.77;7.03;;;19.80;99.90;;;;;;5036366;28;20551;-68
2022/07/13 02:38:06;;;;;;;10.20;7.72;;;19.80;99.90;;;;;;5019463;28;20041;-68
2022/07/13 02:40:33;;;;;;;9.38;7.22;;;19.80;99.90;;;;;;5037103;28;20086;-67
2022/07/13 02:42:58;;;;;;;10.63;6.97;;;19.80;99.90;;;;;;5019847;28;20037;-68
2022/07/13 02:45:24;;;;;;;10.13;7.22;;;19.80;99.90;;;;;;5036751;28;20055;-68
2022/07/13 02:47:50;;;;;;;9.15;7.53;;;19.80;99.90;;;;;;5036448;28;20032;-68
2022/07/13 02:50:15;;;;;;;10.30;6.70;;;19.80;99.90;;;;;;5036374;28;20045;-68
2022/07/13 02:52:41;;;;;;;10.88;7.53;;;19.70;99.90;;;;;;5034555;28;20045;-68
2022/07/13 02:55:07;;;;;;;9.85;7.07;;;19.70;99.90;;;;;;5036873;28;20033;-68
2022/07/13 02:57:33;;;;;;;8.25;6.68;;;19.70;99.90;;;;;;5019439;28;20390;-68
2022/07/13 02:59:59;;;;;;;9.60;6.18;;;19.60;99.90;;;;;;5018365;28;20123;-68
2022/07/13 03:02:24;;;;;;;9.00;6.53;;;19.60;99.90;;;;;;5020276;28;20041;-68
2022/07/13 03:04:50;;;;;;;9.70;6.22;;;19.60;99.90;;;;;;5036657;28;20405;-68
2022/07/13 03:07:16;;;;;;;8.30;6.05;;;19.50;99.90;;;;;;5020150;28;20095;-68
2022/07/13 03:09:42;;;;;;;8.60;6.63;;;19.50;99.90;;;;;;5036024;28;20037;-68
2022/07/13 03:12:07;;;;;;;9.55;7.28;;;19.50;99.90;;;;;;5019267;28;20052;-68
2022/07/13 03:14:33;;;;;;;9.38;7.13;;;19.50;99.90;;;;;;5036514;28;20493;-68
2022/07/13 03:16:58;;;;;;;10.30;6.63;;;19.60;99.90;;;;;;5032978;28;20041;-68
2022/07/13 03:19:24;;;;;;;9.02;6.63;;;19.60;99.90;;;;;;5017791;28;20033;-69
2022/07/13 03:21:50;;;;;;;9.50;6.10;;;19.50;99.90;;;;;;5017256;28;20495;-68
2022/07/13 03:24:15;;;;;;;8.82;5.90;;;19.50;99.90;;;;;;5034295;28;20095;-68
2022/07/13 03:26:41;;;;;;;8.90;6.20;;;19.50;99.90;;;;;;5019932;28;20036;-68
2022/07/13 03:29:07;;;;;;;8.35;5.80;;;19.50;99.90;;;;;;5017990;28;20124;-68
2022/07/13 03:31:32;;;;;;;8.90;6.80;;;19.50;99.90;;;;;;5031864;28;20485;-68
2022/07/13 03:33:58;;;;;;;8.60;6.03;;;19.50;99.90;;;;;;5035219;28;20041;-68
2022/07/13 03:36:23;;;;;;;8.52;5.97;;;19.40;99.90;;;;;;5019979;28;20036;-68
2022/07/13 03:38:49;;;;;;;7.55;5.40;;;19.50;99.90;;;;;;5019084;28;20525;-68
2022/07/13 03:41:15;;;;;;;8.27;5.93;;;19.40;99.90;;;;;;5035223;28;20554;-68
2022/07/13 03:43:40;;;;;;;7.50;5.75;;;19.40;99.90;;;;;;5033524;28;20041;-68
2022/07/13 03:46:06;;;;;;;8.95;5.70;;;19.40;99.90;;;;;;5034747;28;20083;-68
2022/07/13 03:48:31;;;;;;;7.75;5.75;;;19.40;99.90;;;;;;5033640;28;20116;-68
2022/07/13 03:50:57;;;;;;;7.20;5.35;;;19.40;99.90;;;;;;5018709;28;20445;-68
2022/07/13 03:53:22;;;;;;;9.10;5.40;;;19.40;99.90;;;;;;5032990;28;20044;-68
2022/07/13 03:55:48;;;;;;;10.73;6.20;;;19.40;99.90;;;;;;5019179;28;20402;-68
2022/07/13 03:58:14;;;;;;;8.30;5.82;;;19.40;99.90;;;;;;5017412;28;20045;-68
2022/07/13 04:00:39;;;;;;;7.32;5.55;;;19.40;99.90;;;;;;5035778;28;20083;-68
2022/07/13 04:03:05;;;;;;;10.40;5.72;;;19.40;99.90;;;;;;5034763;28;20044;-68
2022/07/13 04:05:31;;;;;;;7.07;5.13;;;19.40;99.90;;;;;;5030771;28;20045;-68
2022/07/13 04:07:57;;;;;;;7.78;5.13;;;19.40;99.90;;;;;;5021984;28;20042;-68
2022/07/13 04:10:22;;;;;;;7.30;5.15;;;19.40;99.90;;;;;;5034547;28;20033;-68
2022/07/13 04:12:49;;;;;;;7.80;5.25;;;19.30;99.90;;;;;;5034157;28;20032;-68
2022/07/13 04:15:15;;;;;;;7.93;5.43;;;19.40;99.90;;;;;;5035738;28;20084;-68
2022/07/13 04:17:42;;;;;;;7.70;5.60;;;19.40;99.90;;;;;;5015138;28;20062;-68
2022/07/13 04:20:09;;;;;;;7.10;5.22;;;19.40;99.90;;;;;;5019404;28;20066;-68
2022/07/13 04:22:35;;;;;;;8.13;5.07;;;19.30;99.90;;;;;;5034527;28;20053;-68
2022/07/13 04:25:02;;;;;;;7.13;4.78;;;19.20;99.90;;;;;;5018913;28;20055;-68
2022/07/13 04:27:27;;;;;;;7.13;5.03;;;19.20;99.90;;;;;;5015030;28;20382;-68
2022/07/13 04:29:53;;;;;;;8.38;5.10;;;19.20;99.90;;;;;;5035315;28;20107;-68
2022/07/13 04:32:19;;;;;;;8.05;5.28;;;19.20;99.90;;;;;;5017503;28;20405;-69
2022/07/13 04:34:44;;;;;;;8.00;5.40;;;19.20;99.90;;;;;;5034576;28;20060;-68
2022/07/13 04:37:10;;;;;;;9.45;5.78;;;19.30;99.90;;;;;;5042445;28;20087;-68
2022/07/13 04:39:39;;;;;;;8.15;5.60;;;19.30;99.90;;;;;;5041315;28;20136;-69
2022/07/13 04:42:04;;;;;;;8.52;5.90;;;19.30;99.90;;;;;;5022989;28;20558;-68
2022/07/13 04:44:30;;;;;;;7.85;5.68;;;19.30;99.90;;;;;;5038110;28;20041;-69
2022/07/13 04:46:55;;;;;;;8.65;6.57;;;19.30;99.90;;;;;;5017716;28;20378;-68
2022/07/13 04:49:22;;;;;;;10.20;6.32;;;19.40;99.90;;;;;;5034789;28;20094;-68
2022/07/13 04:51:49;;;;;;;8.73;6.20;;;19.40;99.90;;;;;;5017495;28;20045;-68
2022/07/13 04:54:16;;;;;;;8.35;5.95;;;19.50;99.90;;;;;;5018305;28;20044;-69
2022/07/13 04:56:41;;;;;;;8.48;6.03;;;19.50;99.90;;;;;;5033624;28;20051;-68
2022/07/13 04:59:07;;;;;;;8.32;6.35;;;19.50;99.90;;;;;;5037442;28;20132;-68
2022/07/13 05:01:33;;;;;;;8.68;6.07;;;19.50;99.90;;;;;;5054885;28;20067;-68
2022/07/13 05:03:59;;;;;;;8.65;6.70;;;19.50;99.90;;;;;;5039618;28;20053;-68
2022/07/13 05:06:25;;;;;;;8.10;6.05;;;19.50;99.90;;;;;;5038913;28;20078;-68
2022/07/13 05:08:50;;;;;;;9.70;6.68;;;19.50;99.90;;;;;;5024867;28;20037;-69
2022/07/13 05:11:16;;;;;;;9.48;6.47;;;19.60;99.90;;;;;;5050342;28;20052;-68
2022/07/13 05:13:41;;;;;;;9.13;6.57;;;19.60;99.90;;;;;;5021376;28;20047;-68
2022/07/13 05:16:07;;;;;;;9.05;6.55;;;19.60;99.90;;;;;;5034893;28;20490;-68
2022/07/13 05:18:33;;;;;;;10.27;6.47;;;19.60;99.90;;;;;;5048240;28;20389;-68
2022/07/13 05:20:59;;;;;;;8.45;6.10;;;19.50;99.90;;;;;;5038600;28;20163;-68
2022/07/13 05:23:25;;;;;;;7.70;5.65;;;19.50;99.90;;;;;;5036227;28;20078;-68
2022/07/13 05:25:50;;;;;;;8.13;5.75;;;19.50;99.90;;;;;;5037447;28;20043;-68
2022/07/13 05:28:16;;;;;;;7.55;5.78;;;19.50;99.90;;;;;;5055686;28;20036;-69
2022/07/13 05:30:41;;;;;;;8.80;6.05;;;19.50;99.90;;;;;;5038297;28;20505;-69
2022/07/13 05:33:07;;;;;;;8.60;5.35;;;19.50;99.90;;;;;;5024562;28;20064;-69
2022/07/13 05:35:34;;;;;;;8.27;5.65;;;19.60;99.90;;;;;;5035438;28;20060;-69
2022/07/13 05:37:59;;;;;;;8.70;5.80;;;19.70;99.90;;;;;;5036485;28;20135;-69
2022/07/13 05:40:25;;;;;;;7.53;5.40;;;19.70;99.90;;;;;;5038348;28;20044;-68
2022/07/13 05:42:52;;;;;;;7.63;5.70;;;19.70;99.90;;;;;;5035991;28;20463;-68
2022/07/13 05:45:18;;;;;;;6.88;5.18;;;19.70;99.90;;;;;;5038122;28;20037;-69
2022/07/13 05:47:48;;;;;;;7.95;5.72;;;19.70;99.90;;;;;;5038449;28;20040;-69
2022/07/13 05:50:14;;;;;;;7.18;5.38;;;19.80;99.90;;;;;;5036457;28;20041;-69
2022/07/13 05:52:40;;;;;;;7.30;5.10;;;19.80;99.90;;;;;;5023659;28;20037;-69
2022/07/13 05:55:07;;;;;;;9.07;5.88;;;19.90;99.90;;;;;;5014350;28;20072;-69
2022/07/13 05:57:32;;;;;;;8.52;5.70;;;19.90;99.90;;;;;;5023369;28;20037;-69
2022/07/13 05:59:58;;;;;;;9.57;5.53;;;19.90;99.90;;;;;;5037951;28;20045;-68
2022/07/13 06:02:23;;;;;;;7.47;4.95;;;20.00;99.90;;;;;;5021307;28;20123;-68
2022/07/13 06:04:49;;;;;;;9.50;5.07;;;19.90;99.90;;;;;;5054418;28;20037;-69
2022/07/13 06:07:15;;;;;;;9.00;5.18;;;20.00;99.90;;;;;;5042022;28;20064;-69
2022/07/13 06:09:40;;;;;;;8.70;6.00;;;20.10;99.90;;;;;;5036397;28;20838;-68
2022/07/13 06:12:07;;;;;;;7.68;5.25;;;20.10;99.90;;;;;;5037726;28;20033;-69
2022/07/13 06:14:32;;;;;;;9.40;5.18;;;20.10;99.90;;;;;;5019661;28;20405;-69
2022/07/13 06:16:58;;;;;;;7.63;5.45;;;20.20;99.90;;;;;;5035690;28;20047;-69
2022/07/13 06:19:23;;;;;;;9.02;5.28;;;20.20;99.90;;;;;;5018569;28;20492;-68
2022/07/13 06:21:49;;;;;;;9.07;5.53;;;20.30;99.90;;;;;;5019456;28;20397;-68
2022/07/13 06:24:14;;;;;;;8.57;5.70;;;20.30;99.90;;;;;;5033219;28;20045;-68
2022/07/13 06:26:40;;;;;;;7.28;5.20;;;20.40;99.90;;;;;;5032902;28;20517;-68
2022/07/13 06:29:06;;;;;;;8.20;5.53;;;20.50;99.90;;;;;;5019742;28;20036;-68
2022/07/13 06:31:32;;;;;;;8.50;5.90;;;20.50;99.90;;;;;;5036163;28;20455;-69
2022/07/13 06:33:57;;;;;;;11.15;6.00;;;20.50;99.90;;;;;;5019925;28;20128;-69
2022/07/13 06:36:23;;;;;;;9.38;5.72;;;20.60;99.90;;;;;;5036421;28;20124;-68
2022/07/13 06:38:49;;;;;;;8.35;5.57;;;20.60;99.90;;;;;;5020227;28;20032;-69
2022/07/13 06:41:15;;;;;;;8.07;6.22;;;20.70;99.90;;;;;;5019437;28;20041;-68
2022/07/13 06:43:41;;;;;;;10.80;5.93;;;20.80;99.90;;;;;;5019358;28;20045;-69
2022/07/13 06:46:07;;;;;;;9.65;6.10;;;20.90;99.90;;;;;;5025320;28;20040;-68
2022/07/13 06:48:35;;;;;;;9.05;6.90;;;20.90;99.90;;;;;;5036336;28;20504;-69
2022/07/13 06:51:00;;;;;;;10.32;6.43;;;21.00;99.90;;;;;;5046249;28;20065;-68
2022/07/13 06:53:26;;;;;;;9.30;6.40;;;21.00;99.90;;;;;;4994259;28;20079;-68
2022/07/13 06:55:51;;;;;;;8.73;6.38;;;21.10;99.90;;;;;;5034503;28;20044;-68
2022/07/13 06:58:17;;;;;;;11.13;6.45;;;21.10;99.90;;;;;;5032896;28;20036;-69
2022/07/13 07:00:43;;;;;;;10.35;6.70;;;21.20;99.90;;;;;;5028061;28;20044;-69
2022/07/13 07:03:09;;;;;;;9.95;7.75;;;21.30;99.90;;;;;;5040149;28;20978;-68
2022/07/13 07:05:34;;;;;;;11.18;7.35;;;21.30;99.90;;;;;;5016289;28;20056;-68
2022/07/13 07:08:02;;;;;;;10.10;7.88;;;21.30;99.90;;;;;;5029596;28;20040;-69
2022/07/13 07:10:28;;;;;;;12.20;7.82;;;21.30;99.90;;;;;;5018321;28;20412;-68
2022/07/13 07:12:54;;;;;;;11.13;7.82;;;21.40;99.90;;;;;;5018956;28;20493;-73
2022/07/13 07:15:19;;;;;;;10.20;7.93;;;21.60;99.90;;;;;;5035331;28;20120;-73
2022/07/13 07:17:49;;;;;;;12.57;7.85;;;21.70;99.90;;;;;;5034774;28;20060;-73
2022/07/13 07:20:15;;;;;;;13.38;9.13;;;21.90;99.90;;;;;;5019397;28;20044;-68
2022/07/13 07:22:42;;;;;;;13.88;8.27;;;22.00;99.90;;;;;;5032628;28;20048;-68
2022/07/13 07:25:08;;;;;;;13.93;8.75;;;22.20;99.90;;;;;;5032888;28;20048;-68
2022/07/13 07:27:35;;;;;;;11.75;8.27;;;22.20;99.90;;;;;;5034541;28;20367;-68
2022/07/13 07:30:00;;;;;;;11.65;8.82;;;22.10;99.90;;;;;;5033646;28;20047;-68
2022/07/13 07:32:26;;;;;;;12.93;8.60;;;22.10;99.90;;;;;;5031777;28;20045;-69
2022/07/13 07:34:52;;;;;;;12.48;8.65;;;22.10;99.90;;;;;;5033780;28;20041;-69
2022/07/13 07:37:22;;;;;;;10.68;8.23;;;22.10;99.90;;;;;;5034222;28;20090;-69
2022/07/13 07:39:51;;;;;;;13.63;8.80;;;22.20;99.90;;;;;;5033319;28;20041;-68
2022/07/13 07:42:17;;;;;;;11.73;8.40;;;22.40;99.90;;;;;;4999398;28;20056;-69
2022/07/13 07:44:43;;;;;;;12.48;8.95;;;22.60;99.90;;;;;;5029421;28;20091;-68
2022/07/13 07:47:08;;;;;;;12.23;8.90;;;22.70;99.90;;;;;;5034663;28;20428;-68
2022/07/13 07:49:35;;;;;;;12.63;9.10;;;22.70;99.90;;;;;;5034162;28;20477;-69
2022/07/13 07:52:01;;;;;;;12.18;9.02;;;22.70;99.90;;;;;;5034039;28;20044;-69
2022/07/13 07:54:26;;;;;;;11.90;8.98;;;22.80;99.90;;;;;;5029038;28;20075;-69
2022/07/13 07:56:52;;;;;;;12.77;9.10;;;22.80;99.90;;;;;;5034598;28;20056;-69
2022/07/13 07:59:18;;;;;;;12.40;8.43;;;22.90;99.90;;;;;;5033959;28;20477;-69
2022/07/13 08:01:43;;;;;;;13.23;8.85;;;22.90;99.90;;;;;;5034542;28;20041;-68
2022/07/13 08:04:09;;;;;;;11.68;8.77;;;23.00;99.90;;;;;;5032751;28;20095;-69
2022/07/13 08:06:35;;;;;;;11.48;8.23;;;23.10;99.90;;;;;;5034062;28;20477;-68
2022/07/13 08:09:01;;;;;;;13.10;8.13;;;23.10;99.90;;;;;;5033910;28;20071;-68
2022/07/13 08:11:27;;;;;;;11.55;8.55;;;23.20;99.90;;;;;;5031341;28;20129;-69
2022/07/13 08:13:53;;;;;;;12.85;9.65;;;23.30;99.90;;;;;;5034225;28;20116;-69
2022/07/13 08:16:19;;;;;;;12.18;8.73;;;23.40;99.90;;;;;;5033653;28;20139;-69
2022/07/13 08:18:45;;;;;;;11.85;8.82;;;23.40;99.90;;;;;;5016396;28;20524;-69
2022/07/13 08:21:12;;;;;;;14.10;9.15;;;23.50;99.90;;;;;;5035198;28;20037;-69
2022/07/13 08:23:54;;;;;;;13.30;8.85;;;23.60;99.90;;;;;;5034142;28;20044;-69
2022/07/13 08:26:21;;;;;;;11.65;8.13;;;23.60;99.90;;;;;;5017397;28;20041;-69
2022/07/13 08:28:48;;;;;;;11.82;7.78;;;23.70;99.90;;;;;;5009920;28;20047;-69
2022/07/13 08:31:14;;;;;;;11.65;7.95;;;23.80;99.90;;;;;;5018231;28;20045;-69
2022/07/13 08:39:10;;;;;;;10.60;7.82;;;24.10;99.90;;;;;;5032496;28;20409;-68
2022/07/13 08:41:36;;;;;;;12.18;8.07;;;24.10;99.90;;;;;;5033693;28;20114;-69
2022/07/13 08:44:02;;;;;;;11.82;7.72;;;24.20;99.90;;;;;;5016884;28;20136;-69
2022/07/13 08:46:28;;;;;;;10.40;7.60;;;24.20;99.90;;;;;;5017807;28;20393;-69
2022/07/13 08:48:55;;;;;;;9.48;6.75;;;24.30;99.90;;;;;;5029130;28;20033;-69
2022/07/13 08:51:22;;;;;;;11.35;7.72;;;24.40;99.90;;;;;;5015288;28;20041;-69
2022/07/13 08:53:51;;;;;;;12.90;7.63;;;24.50;99.90;;;;;;5030694;28;20041;-69
2022/07/13 08:56:17;;;;;;;11.75;7.90;;;24.70;99.90;;;;;;5033677;28;20437;-69
2022/07/13 08:58:43;;;;;;;13.00;7.78;;;24.70;99.90;;;;;;5025308;28;20120;-69
2022/07/13 09:01:09;;;;;;;10.52;7.50;;;24.70;99.90;;;;;;5033766;28;20144;-69
2022/07/13 09:03:36;;;;;;;11.80;6.20;;;24.70;99.90;;;;;;5016914;28;20045;-69
2022/07/13 09:06:02;;;;;;;14.63;6.75;;;24.70;99.90;;;;;;5028157;28;20487;-69
2022/07/13 09:08:28;;;;;;;9.60;5.95;;;24.80;99.90;;;;;;5048739;28;20051;-69
2022/07/13 09:10:57;;;;;;;8.57;4.75;;;25.00;99.90;;;;;;5031345;28;20998;-68
2022/07/13 09:13:33;;;;;;;8.90;4.28;;;25.00;99.90;;;;;;5013561;28;20037;-69
2022/07/13 09:16:19;;;;;;;7.85;4.90;;;25.10;99.90;;;;;;5033279;28;20045;-69
2022/07/13 09:18:47;;;;;;;7.82;4.45;;;25.20;99.90;;;;;;5032398;28;20037;-69
2022/07/13 09:21:13;;;;;;;6.78;3.88;;;25.30;99.90;;;;;;5032894;28;20049;-69
2022/07/13 09:23:39;;;;;;;6.95;3.80;;;25.30;99.90;;;;;;5032751;28;20072;-69
2022/07/13 09:26:05;;;;;;;9.93;4.53;;;25.30;99.90;;;;;;5034668;28;20063;-70
2022/07/13 09:28:45;;;;;;;9.38;4.82;;;25.30;99.90;;;;;;5010709;28;20044;-70
2022/07/13 09:31:11;;;;;;;7.43;4.10;;;25.40;99.90;;;;;;5034395;28;20056;-70
2022/07/13 09:33:38;;;;;;;8.32;3.42;;;25.30;99.90;;;;;;5018050;28;20037;-70
2022/07/13 09:36:11;;;;;;;6.32;3.03;;;25.40;99.90;;;;;;5025150;28;20444;-70
2022/07/13 09:38:39;;;;;;;6.20;2.65;;;25.40;99.90;;;;;;5030846;28;20036;-70
2022/07/13 09:41:21;;;;;;;5.13;2.20;;;25.60;99.90;;;;;;5034678;28;20490;-70
2022/07/13 09:47:05;;;;;;;5.07;2.30;;;25.70;99.90;;;;;;5028759;28;20650;-72
2022/07/13 09:49:39;;;;;;;4.70;2.40;;;25.80;99.90;;;;;;5022051;28;20037;-72
2022/07/13 09:52:06;;;;;;;4.72;2.30;;;25.80;99.90;;;;;;5034322;28;20040;-73
2022/07/13 09:54:34;;;;;;;6.97;2.30;;;25.80;99.90;;;;;;5036230;28;20052;-73
2022/07/13 09:57:07;;;;;;;5.22;2.30;;;25.90;99.40;;;;;;5035798;28;20117;-73
2022/07/13 09:59:35;;;;;;;4.75;2.40;;;26.00;99.90;;;;;;5035768;28;20048;-73
2022/07/13 10:02:02;;;;;;;4.88;2.30;;;25.90;99.90;;;;;;5024866;28;20051;-73
2022/07/13 10:04:30;;;;;;;5.55;2.40;;;26.10;99.90;;;;;;5009633;28;20051;-73
2022/07/13 10:06:55;;;;;;;5.03;2.20;;;26.20;99.90;;;;;;5033473;28;20044;-73
2022/07/13 10:09:28;;;;;;;5.63;2.53;;;26.20;99.30;;;;;;5035294;28;20428;-73
2022/07/13 10:11:54;;;;;;;6.07;2.90;;;26.20;99.90;;;;;;5054237;28;20041;-73
2022/07/13 10:14:20;;;;;;;6.32;2.47;;;26.30;99.90;;;;;;5049550;28;20049;-69
2022/07/13 10:16:46;;;;;;;7.13;2.90;;;26.30;99.90;;;;;;5033609;28;20528;-69
2022/07/13 10:19:12;;;;;;;7.20;2.45;;;26.30;99.90;;;;;;5035749;28;20560;-69
2022/07/13 10:22:03;;;;;;;5.55;2.50;;;26.30;99.90;;;;;;5035882;28;20049;-69
2022/07/13 10:24:28;;;;;;;5.13;2.40;;;26.30;99.90;;;;;;5017204;28;20041;-69
2022/07/13 10:27:30;;;;;;;4.55;2.38;;;26.30;99.90;;;;;;5019451;28;20127;-69
2022/07/13 10:30:01;;;;;;;5.90;2.50;;;26.40;99.90;;;;;;5033107;28;20091;-69
2022/07/13 10:32:31;;;;;;;6.38;2.58;;;26.50;99.90;;;;;;5034816;28;20059;-69
2022/07/13 10:35:04;;;;;;;6.25;2.63;;;26.50;99.90;;;;;;5032255;28;20072;-69
2022/07/13 10:37:56;;;;;;;5.72;2.90;;;26.50;99.90;;;;;;5034066;28;20588;-70
2022/07/13 10:40:28;;;;;;;5.30;2.80;;;26.50;99.90;;;;;;5036138;28;20091;-69
2022/07/13 10:42:57;;;;;;;7.28;2.72;;;26.60;99.90;;;;;;5033994;28;20049;-69
2022/07/13 10:45:32;;;;;;;6.43;2.67;;;26.60;99.90;;;;;;5033257;28;20587;-69
2022/07/13 10:47:58;;;;;;;6.07;2.90;;;26.60;99.90;;;;;;5018527;28;20032;-69
2022/07/13 10:50:26;;;;;;;6.25;2.85;;;26.60;99.90;;;;;;5019584;28;20033;-69
2022/07/13 10:52:52;;;;;;;6.28;3.55;;;26.70;99.90;;;;;;5034573;28;20146;-70
2022/07/13 10:55:34;;;;;;;6.15;2.90;;;26.70;99.90;;;;;;5044499;28;20036;-70
2022/07/13 10:58:20;;;;;;;5.43;2.97;;;26.80;99.90;;;;;;5019539;28;20482;-69
2022/07/13 11:00:47;;;;;;;6.93;3.03;;;26.80;99.90;;;;;;5019072;28;20182;-69
2022/07/13 11:03:24;;;;;;;7.70;3.10;;;26.80;99.90;;;;;;5011315;28;20392;-69
2022/07/13 11:06:11;;;;;;;5.35;2.95;;;26.80;99.90;;;;;;5029732;28;20053;-69
2022/07/13 11:08:38;;;;;;;5.18;2.67;;;26.90;99.90;;;;;;5052268;28;20048;-69
2022/07/13 11:11:15;;;;;;;5.40;2.58;;;26.80;99.90;;;;;;5035467;28;20393;-69
2022/07/13 11:13:45;;;;;;;5.22;2.78;;;26.80;99.40;;;;;;5036024;28;20064;-69
2022/07/13 11:16:14;;;;;;;5.00;2.65;;;26.80;99.90;;;;;;5027735;28;20040;-69
2022/07/13 11:18:41;;;;;;;6.63;2.55;;;26.90;99.90;;;;;;5022074;28;20037;-69
2022/07/13 11:21:13;;;;;;;4.68;2.80;;;26.80;99.90;;;;;;5031973;28;20060;-69
2022/07/13 11:27:02;;;;;;;4.97;2.65;;;26.60;99.90;;;;;;5029132;28;20072;-69
2022/07/13 11:29:45;;;;;;;4.28;2.70;;;26.60;99.80;;;;;;5025815;28;20044;-69
2022/07/13 11:32:10;;;;;;;6.93;3.10;;;26.50;99.90;;;;;;5030215;28;20129;-69
2022/07/13 11:34:37;;;;;;;6.22;2.53;;;26.50;99.90;;;;;;5025423;28;20171;-69
2022/07/13 11:37:04;;;;;;;4.43;2.28;;;26.40;99.90;;;;;;5034650;28;20045;-69
2022/07/13 11:39:32;;;;;;;3.58;2.13;;;26.40;99.90;;;;;;5018774;28;20043;-73
2022/07/13 11:41:59;;;;;;;4.85;2.28;;;26.30;99.90;;;;;;5017359;28;20045;-71
2022/07/13 11:44:27;;;;;;;4.97;2.50;;;26.20;99.90;;;;;;5030984;28;20440;-71
2022/07/13 11:46:56;;;;;;;4.50;2.10;;;26.00;99.90;;;;;;5034381;28;20087;-71
2022/07/13 11:49:23;;;;;;;4.90;1.90;;;25.80;99.90;;;;;;5033453;28;20033;-71
2022/07/13 11:51:49;;;;;;;4.13;2.10;;;25.80;99.90;;;;;;5017450;28;20553;-71
2022/07/13 11:54:25;;;;;;;4.03;2.30;;;25.70;99.90;;;;;;5012495;28;20415;-71
2022/07/13 11:56:51;;;;;;;5.72;2.28;;;25.70;99.90;;;;;;5015561;28;20501;-71
2022/07/13 11:59:44;;;;;;;4.43;2.40;;;25.70;99.90;;;;;;5011424;28;20049;-71
2022/07/13 12:02:14;;;;;;;5.38;2.50;;;25.60;99.70;;;;;;5036712;28;20045;-71
2022/07/13 12:04:47;;;;;;;5.10;2.30;;;25.50;99.90;;;;;;5047003;28;20041;-69
2022/07/13 12:07:32;;;;;;;4.50;2.20;;;25.50;99.90;;;;;;5020361;28;20396;-69
2022/07/13 12:10:04;;;;;;;5.50;2.38;;;25.50;99.90;;;;;;5041516;28;20508;-69
2022/07/13 12:12:31;;;;;;;3.67;2.00;;;25.60;99.90;;;;;;5034849;28;20044;-69
2022/07/13 12:14:58;;;;;;;3.60;1.92;;;25.70;99.90;;;;;;5027328;28;20405;-70
2022/07/13 12:17:26;;;;;;;4.20;2.38;;;25.70;99.90;;;;;;5034133;28;20068;-70
2022/07/13 12:19:51;;;;;;;6.43;2.45;;;25.80;99.90;;;;;;5018297;28;20052;-70
2022/07/13 12:22:23;;;;;;;4.18;1.98;;;25.80;99.90;;;;;;5015292;28;20033;-70
2022/07/13 12:24:49;;;;;;;4.43;2.00;;;25.80;99.90;;;;;;5014974;28;20477;-70
2022/07/13 12:27:26;;;;;;;4.25;2.00;;;25.70;99.90;;;;;;5018357;28;20040;-70
2022/07/13 12:30:08;;;;;;;4.93;2.40;;;25.50;99.90;;;;;;5015774;28;20045;-70
2022/07/13 12:33:03;;;;;;;4.63;2.10;;;25.50;99.90;;;;;;5022687;28;20045;-70
2022/07/13 12:35:30;;;;;;;5.32;2.10;;;25.50;99.90;;;;;;5032027;28;20045;-70
2022/07/13 12:37:57;;;;;;;6.60;2.45;;;25.50;99.90;;;;;;5017911;28;20493;-70
2022/07/13 12:40:42;;;;;;;5.43;2.47;;;25.50;99.90;;;;;;5018178;28;20045;-70
2022/07/13 12:43:18;;;;;;;5.65;2.28;;;25.30;99.90;;;;;;5022633;28;20041;-70
2022/07/13 12:45:47;;;;;;;3.88;2.08;;;25.20;99.90;;;;;;5016760;28;20079;-70
2022/07/13 12:48:17;;;;;;;5.53;2.55;;;25.20;99.90;;;;;;5034502;28;20041;-70
2022/07/13 12:50:56;;;;;;;4.65;2.20;;;25.20;99.90;;;;;;5034343;28;20040;-70
2022/07/13 12:53:22;;;;;;;4.90;2.30;;;25.20;99.90;;;;;;5011831;28;20044;-70
2022/07/13 12:55:55;;;;;;;6.28;2.28;;;25.20;99.90;;;;;;5030583;28;20045;-70
2022/07/13 12:58:54;;;;;;;5.38;2.40;;;25.20;99.90;;;;;;5032412;28;20497;-70
2022/07/13 13:01:30;;;;;;;6.65;2.30;;;25.10;99.90;;;;;;5032881;28;20037;-70